createdAt,value
2022-12-12T00:02:47.466Z,13.50
2022-12-12T00:07:51.381Z,10.17
2022-12-12T00:12:53.878Z,9.20
2022-12-12T00:22:58.612Z,8.47
2022-12-12T00:28:02.508Z,8.52
2022-12-12T00:33:04.548Z,7.67
2022-12-12T00:38:06.647Z,7.55
2022-12-12T00:43:08.760Z,7.05
2022-12-12T00:48:10.814Z,7.15
2022-12-12T00:53:13.582Z,6.85
2022-12-12T00:58:15.589Z,7.60
2022-12-12T01:03:18.049Z,7.68
2022-12-12T01:08:20.416Z,6.93
2022-12-12T01:13:22.646Z,6.72
2022-12-12T01:18:25.533Z,6.60
2022-12-12T01:23:27.942Z,7.20
2022-12-12T01:28:30.065Z,7.10
2022-12-12T01:33:32.297Z,7.37
2022-12-12T01:38:34.459Z,7.60
2022-12-12T01:43:36.553Z,8.23
2022-12-12T01:48:41.545Z,9.63
2022-12-12T01:53:45.700Z,9.80
2022-12-12T01:58:49.661Z,10.50
2022-12-12T02:03:52.727Z,12.83
2022-12-12T02:08:58.102Z,12.97
2022-12-12T02:14:00.432Z,15.47
2022-12-12T02:24:19.440Z,14.47
2022-12-12T02:29:54.022Z,15.70
2022-12-12T02:35:20.102Z,16.17
2022-12-12T02:40:22.102Z,15.13
2022-12-12T02:45:53.167Z,14.57
2022-12-12T02:50:58.923Z,14.23
2022-12-12T02:56:06.784Z,13.80
2022-12-12T03:01:14.767Z,14.47
2022-12-12T03:07:00.762Z,16.03
2022-12-12T03:12:06.041Z,13.00
2022-12-12T03:17:18.236Z,14.23
2022-12-12T03:22:31.579Z,15.48
2022-12-12T03:27:50.781Z,12.07
2022-12-12T03:33:03.054Z,12.80
2022-12-12T03:38:19.771Z,12.60
2022-12-12T03:43:31.916Z,12.50
2022-12-12T03:48:38.150Z,10.77
2022-12-12T03:53:46.234Z,12.53
2022-12-12T03:59:03.609Z,12.10
2022-12-12T04:04:32.645Z,13.00
2022-12-12T04:09:53.649Z,13.87
2022-12-12T04:15:09.892Z,13.63
2022-12-12T04:21:07.541Z,10.63
2022-12-12T04:26:41.592Z,13.03
2022-12-12T04:31:51.808Z,11.80
2022-12-12T04:36:54.654Z,12.03
2022-12-12T04:41:58.515Z,13.23
2022-12-12T04:47:02.942Z,15.23
2022-12-12T04:52:12.431Z,12.93
2022-12-12T04:57:23.829Z,13.90
2022-12-12T05:02:31.686Z,11.90
2022-12-12T05:07:43.805Z,11.53
2022-12-12T05:12:51.446Z,12.43
2022-12-12T05:18:05.425Z,12.70
2022-12-12T05:23:07.608Z,12.50
2022-12-12T05:28:09.710Z,12.68
2022-12-12T05:33:11.761Z,11.27
2022-12-12T05:38:13.810Z,10.70
2022-12-12T05:43:15.930Z,10.82
2022-12-12T05:48:23.974Z,11.80
2022-12-12T05:53:26.594Z,10.40
2022-12-12T05:58:28.785Z,11.45
2022-12-12T06:03:32.031Z,10.45
2022-12-12T06:08:34.288Z,11.93
2022-12-12T06:13:37.645Z,11.53
2022-12-12T06:18:39.752Z,13.43
2022-12-12T06:23:42.840Z,14.20
2022-12-12T06:28:45.323Z,12.70
2022-12-12T06:33:47.766Z,12.93
2022-12-12T06:38:55.437Z,11.98
2022-12-12T06:43:57.842Z,10.80
2022-12-12T06:48:59.956Z,11.80
2022-12-12T06:54:02.246Z,10.23
2022-12-12T07:04:07.200Z,9.53
2022-12-12T07:09:09.709Z,9.40
2022-12-12T07:14:12.257Z,9.30
2022-12-12T07:19:14.451Z,8.50
2022-12-12T07:24:16.626Z,8.82
2022-12-12T07:29:18.735Z,9.30
2022-12-12T07:34:20.841Z,9.93
2022-12-12T07:39:22.949Z,12.00
2022-12-12T07:44:25.007Z,14.60
2022-12-12T07:49:29.013Z,14.07
2022-12-12T07:54:31.116Z,15.20
2022-12-12T07:59:33.190Z,13.40
2022-12-12T08:04:35.295Z,13.35
2022-12-12T08:09:37.737Z,15.38
2022-12-12T08:19:41.920Z,15.97
2022-12-12T08:24:44.084Z,16.58
2022-12-12T08:29:46.230Z,14.50
2022-12-12T08:34:48.559Z,13.52
2022-12-12T08:44:57.853Z,12.63
2022-12-12T08:50:00.009Z,12.45
2022-12-12T08:55:02.187Z,15.70
2022-12-12T09:00:05.195Z,13.88
2022-12-12T09:05:08.051Z,14.25
2022-12-12T09:10:10.869Z,15.80
2022-12-12T09:15:14.497Z,15.15
2022-12-12T09:20:17.039Z,16.10
2022-12-12T09:25:19.354Z,17.10
2022-12-12T09:30:22.168Z,15.27
2022-12-12T09:35:24.480Z,13.73
2022-12-12T09:41:05.537Z,14.30
2022-12-12T09:46:37.608Z,13.23
2022-12-12T09:51:44.131Z,12.47
2022-12-12T09:57:13.238Z,12.23
2022-12-12T10:02:34.198Z,12.40
2022-12-12T10:07:46.369Z,11.73
2022-12-12T10:12:50.163Z,13.43
2022-12-12T10:17:53.052Z,12.60
2022-12-12T10:23:11.217Z,11.87
2022-12-12T10:28:19.159Z,12.50
2022-12-12T10:33:34.320Z,13.27
2022-12-12T10:38:52.564Z,13.07
2022-12-12T10:44:22.963Z,12.90
2022-12-12T10:49:25.201Z,12.50
2022-12-12T10:54:29.092Z,12.30
2022-12-12T10:59:31.521Z,13.90
2022-12-12T11:09:45.534Z,12.53
2022-12-12T11:14:51.279Z,13.37
2022-12-12T11:19:57.037Z,12.63
2022-12-12T11:25:00.445Z,11.05
2022-12-12T11:30:07.962Z,13.23
2022-12-12T11:35:28.792Z,12.95
2022-12-12T11:40:34.678Z,12.90
2022-12-12T11:45:36.781Z,12.65
2022-12-12T11:50:46.425Z,15.10
2022-12-12T11:56:03.189Z,13.90
2022-12-12T12:01:17.713Z,12.75
2022-12-12T12:06:41.640Z,12.30
2022-12-12T12:12:23.463Z,13.07
2022-12-12T12:17:47.393Z,17.57
2022-12-12T12:23:08.333Z,13.75
2022-12-12T12:28:30.155Z,13.53
2022-12-12T12:33:51.285Z,13.23
2022-12-12T12:39:01.750Z,12.37
2022-12-12T12:44:03.807Z,12.25
2022-12-12T12:49:22.304Z,12.93
2022-12-12T12:54:31.121Z,12.90
2022-12-12T12:59:41.782Z,11.70
2022-12-12T13:05:10.185Z,12.40
2022-12-12T13:10:22.395Z,11.60
2022-12-12T13:15:45.590Z,11.67
2022-12-12T13:21:00.325Z,12.52
2022-12-12T13:26:23.139Z,12.85
2022-12-12T13:31:25.581Z,12.00
2022-12-12T13:36:32.343Z,14.02
2022-12-12T13:41:53.959Z,13.55
2022-12-12T13:46:56.128Z,11.40
2022-12-12T13:52:37.776Z,12.93
2022-12-12T13:58:05.637Z,12.30
2022-12-12T14:03:25.967Z,11.60
2022-12-12T14:08:33.356Z,12.57
2022-12-12T14:13:44.618Z,12.17
2022-12-12T14:18:49.748Z,12.67
2022-12-12T14:23:53.476Z,12.43
2022-12-12T14:29:17.242Z,12.23
2022-12-12T14:34:34.392Z,11.50
2022-12-12T14:39:53.340Z,15.65
2022-12-12T14:44:55.966Z,13.70
2022-12-12T14:50:11.077Z,13.45
2022-12-12T14:55:15.760Z,13.45
2022-12-12T15:00:19.389Z,14.60
2022-12-12T15:05:21.437Z,14.50
2022-12-12T15:10:25.898Z,14.52
2022-12-12T15:15:31.882Z,14.33
2022-12-12T15:20:34.999Z,12.90
2022-12-12T15:25:55.900Z,11.90
2022-12-12T15:30:58.144Z,13.43
2022-12-12T15:36:07.686Z,13.32
2022-12-12T15:41:13.713Z,13.23
2022-12-12T15:46:16.862Z,12.35
2022-12-12T15:51:24.679Z,10.90
2022-12-12T15:56:29.176Z,12.10
2022-12-12T16:01:31.683Z,9.93
2022-12-12T16:06:38.548Z,10.83
2022-12-12T16:11:46.920Z,10.77
2022-12-12T16:16:54.787Z,15.60
2022-12-12T16:21:57.376Z,13.43
2022-12-12T16:27:00.565Z,10.83
2022-12-12T16:32:02.736Z,13.23
2022-12-12T16:37:04.785Z,12.90
2022-12-12T16:42:11.836Z,14.75
2022-12-12T16:47:15.843Z,14.30
2022-12-12T16:52:20.518Z,14.73
2022-12-12T16:57:22.647Z,14.30
2022-12-12T17:02:25.497Z,11.50
2022-12-12T17:07:27.784Z,13.13
2022-12-12T17:17:32.083Z,10.80
2022-12-12T17:22:34.247Z,10.32
2022-12-12T17:32:39.795Z,10.90
2022-12-12T17:37:42.167Z,12.03
2022-12-12T17:42:44.243Z,11.80
2022-12-12T17:47:46.326Z,12.95
2022-12-12T17:57:50.627Z,10.87
2022-12-12T18:07:55.035Z,9.47
2022-12-12T18:12:57.222Z,11.00
2022-12-12T18:17:59.610Z,10.63
2022-12-12T18:28:04.585Z,11.40
2022-12-12T18:33:09.965Z,9.80
2022-12-12T18:38:12.219Z,10.43
2022-12-12T18:43:14.299Z,8.73
2022-12-12T18:53:18.504Z,8.47
2022-12-12T18:58:20.549Z,8.80
2022-12-12T19:08:24.690Z,8.97
2022-12-12T19:13:28.011Z,8.00
2022-12-12T19:18:30.170Z,8.70
2022-12-12T19:23:33.091Z,10.63
2022-12-12T19:28:36.064Z,8.97
2022-12-12T19:33:38.806Z,9.83
2022-12-12T19:38:41.063Z,10.07
2022-12-12T19:43:44.756Z,7.47
2022-12-12T19:48:48.076Z,7.67
2022-12-12T19:53:52.781Z,8.60
2022-12-12T19:58:56.694Z,10.40
2022-12-12T20:04:02.992Z,10.20
2022-12-12T20:09:05.248Z,10.10
2022-12-12T20:14:07.910Z,9.13
2022-12-12T20:19:11.222Z,8.70
2022-12-12T20:24:15.120Z,10.13
2022-12-12T20:29:17.276Z,10.07
2022-12-12T20:34:24.697Z,12.23
2022-12-12T20:39:27.420Z,8.80
2022-12-12T20:44:30.024Z,9.73
2022-12-12T20:49:32.609Z,11.17
2022-12-12T20:54:35.012Z,10.80
2022-12-12T20:59:37.199Z,12.70
2022-12-12T21:04:39.287Z,11.80
2022-12-12T21:09:41.403Z,13.60
2022-12-12T21:14:43.534Z,13.77
2022-12-12T21:19:45.685Z,10.17
2022-12-12T21:24:47.935Z,11.70
2022-12-12T21:29:50.046Z,11.33
2022-12-12T21:34:52.166Z,10.90
2022-12-12T21:39:54.620Z,11.70
2022-12-12T21:44:56.750Z,9.80
2022-12-12T21:49:58.829Z,8.93
2022-12-12T21:55:00.903Z,10.20
2022-12-12T22:00:03.180Z,12.13
2022-12-12T22:05:15.817Z,12.10
2022-12-12T22:10:18.154Z,12.97
2022-12-12T22:15:21.730Z,15.20
2022-12-12T22:20:24.049Z,14.90
2022-12-12T22:25:27.410Z,13.27
2022-12-12T22:30:29.454Z,14.47
2022-12-12T22:35:31.646Z,15.40
2022-12-12T22:40:33.942Z,12.90
2022-12-12T22:45:35.972Z,13.17
2022-12-12T22:50:38.298Z,13.70
2022-12-12T22:55:40.707Z,12.57
2022-12-12T23:00:43.120Z,10.67
2022-12-12T23:12:07.523Z,10.67
2022-12-12T23:17:09.612Z,11.37
2022-12-12T23:22:12.091Z,12.70
2022-12-12T23:27:14.219Z,10.97
2022-12-12T23:32:16.329Z,10.83
2022-12-12T23:37:18.440Z,11.13
2022-12-12T23:42:20.586Z,11.37
2022-12-12T23:47:22.637Z,13.00
2022-12-12T23:52:24.705Z,12.63
2022-12-12T23:57:26.849Z,10.90
